createdAt,value
2017-10-14T00:01:41.072Z,9.87
2017-10-14T00:04:07.353Z,11.40
2017-10-14T00:06:33.623Z,10.07
2017-10-14T00:08:59.900Z,9.47
2017-10-14T00:11:26.224Z,9.70
2017-10-14T00:13:52.506Z,9.50
2017-10-14T00:16:18.761Z,9.30
2017-10-14T00:18:45.155Z,10.00
2017-10-14T00:21:11.420Z,9.10
2017-10-14T00:23:38.504Z,10.90
2017-10-14T00:26:04.784Z,9.20
2017-10-14T00:28:31.028Z,10.03
2017-10-14T00:30:58.048Z,10.30
2017-10-14T00:33:24.296Z,10.77
2017-10-14T00:35:50.650Z,10.93
2017-10-14T00:38:16.968Z,10.10
2017-10-14T00:40:43.995Z,9.17
2017-10-14T00:43:10.256Z,9.73
2017-10-14T00:45:36.512Z,8.80
2017-10-14T00:48:02.776Z,10.10
2017-10-14T00:50:29.109Z,10.50
2017-10-14T00:52:55.349Z,11.13
2017-10-14T00:55:21.658Z,10.40
2017-10-14T00:57:47.929Z,10.77
2017-10-14T01:00:14.962Z,9.53
2017-10-14T01:02:41.200Z,11.07
2017-10-14T01:05:08.241Z,11.30
2017-10-14T01:07:35.248Z,9.90
2017-10-14T01:10:01.543Z,9.77
2017-10-14T01:12:28.069Z,9.70
2017-10-14T01:14:55.095Z,9.30
2017-10-14T01:17:21.355Z,9.33
2017-10-14T01:19:47.669Z,9.10
2017-10-14T01:22:14.754Z,9.10
2017-10-14T01:24:41.010Z,9.90
2017-10-14T01:27:07.310Z,9.73
2017-10-14T01:29:33.561Z,9.77
2017-10-14T01:31:59.854Z,7.63
2017-10-14T01:34:26.145Z,9.03
2017-10-14T01:36:52.430Z,8.87
2017-10-14T01:39:18.662Z,8.43
2017-10-14T01:41:44.970Z,8.40
2017-10-14T01:44:12.092Z,7.70
2017-10-14T01:46:38.411Z,8.50
2017-10-14T01:49:05.470Z,9.07
2017-10-14T01:51:31.753Z,8.97
2017-10-14T01:53:58.082Z,8.40
2017-10-14T01:56:24.351Z,8.43
2017-10-14T01:58:50.717Z,7.80
2017-10-14T02:01:16.991Z,8.07
2017-10-14T02:03:43.270Z,8.10
2017-10-14T02:06:10.300Z,8.43
2017-10-14T02:08:36.594Z,7.93
2017-10-14T02:11:03.747Z,7.90
2017-10-14T02:13:30.039Z,6.87
2017-10-14T02:15:57.077Z,8.10
2017-10-14T02:18:24.063Z,7.40
2017-10-14T02:20:50.345Z,8.30
2017-10-14T02:23:16.657Z,7.20
2017-10-14T02:25:42.929Z,7.43
2017-10-14T02:28:09.239Z,7.63
2017-10-14T02:30:36.261Z,7.60
2017-10-14T02:33:02.592Z,7.10
2017-10-14T02:35:28.854Z,8.00
2017-10-14T02:37:55.848Z,7.37
2017-10-14T02:40:22.123Z,7.73
2017-10-14T02:42:49.906Z,6.93
2017-10-14T02:45:16.905Z,8.03
2017-10-14T02:47:43.261Z,6.53
2017-10-14T02:50:09.530Z,6.80
2017-10-14T02:52:35.817Z,6.63
2017-10-14T02:55:02.862Z,7.60
2017-10-14T02:57:29.108Z,7.00
2017-10-14T02:59:56.197Z,6.60
2017-10-14T03:02:22.473Z,6.83
2017-10-14T03:04:48.748Z,6.57
2017-10-14T03:07:15.052Z,6.50
2017-10-14T03:09:42.083Z,6.43
2017-10-14T03:12:08.399Z,6.33
2017-10-14T03:14:34.695Z,6.00
2017-10-14T03:17:00.968Z,7.00
2017-10-14T03:19:27.262Z,6.10
2017-10-14T03:21:53.562Z,6.50
2017-10-14T03:24:20.537Z,6.57
2017-10-14T03:26:46.816Z,6.03
2017-10-14T03:29:13.065Z,6.63
2017-10-14T03:31:39.305Z,6.63
2017-10-14T03:34:05.641Z,7.20
2017-10-14T03:36:31.942Z,5.70
2017-10-14T03:38:59.321Z,6.50
2017-10-14T03:41:25.617Z,6.00
2017-10-14T03:43:51.960Z,5.50
2017-10-14T03:46:18.995Z,6.20
2017-10-14T03:48:45.261Z,6.00
2017-10-14T03:51:11.532Z,5.60
2017-10-14T03:53:37.781Z,6.20
2017-10-14T03:56:04.031Z,6.63
2017-10-14T03:58:31.032Z,5.90
2017-10-14T04:00:57.307Z,5.20
2017-10-14T04:03:24.349Z,6.57
2017-10-14T04:05:51.388Z,6.73
2017-10-14T04:08:17.641Z,5.43
2017-10-14T04:10:43.889Z,6.47
2017-10-14T04:13:10.167Z,6.27
2017-10-14T04:15:36.436Z,6.17
2017-10-14T04:18:02.761Z,6.70
2017-10-14T04:20:29.070Z,7.07
2017-10-14T04:22:55.315Z,6.73
2017-10-14T04:25:22.353Z,7.53
2017-10-14T04:27:49.434Z,7.07
2017-10-14T04:30:15.710Z,7.03
2017-10-14T04:32:41.984Z,7.17
2017-10-14T04:35:08.254Z,6.20
2017-10-14T04:37:34.546Z,6.30
2017-10-14T04:40:00.854Z,6.70
2017-10-14T04:42:27.836Z,7.30
2017-10-14T04:44:54.074Z,7.63
2017-10-14T04:47:20.324Z,6.50
2017-10-14T04:49:46.620Z,7.50
2017-10-14T04:52:12.868Z,6.80
2017-10-14T04:54:39.148Z,6.30
2017-10-14T04:57:06.139Z,7.03
2017-10-14T04:59:32.427Z,7.63
2017-10-14T05:01:59.851Z,7.40
2017-10-14T05:04:26.134Z,7.50
2017-10-14T05:06:52.413Z,7.17
2017-10-14T05:09:18.660Z,7.40
2017-10-14T05:11:44.915Z,9.77
2017-10-14T05:14:12.153Z,8.03
2017-10-14T05:16:39.218Z,8.63
2017-10-14T05:19:06.310Z,7.30
2017-10-14T05:21:33.352Z,7.90
2017-10-14T05:23:59.597Z,7.27
2017-10-14T05:26:25.868Z,8.07
2017-10-14T05:28:52.891Z,8.43
2017-10-14T05:31:19.132Z,7.70
2017-10-14T05:33:46.160Z,7.40
2017-10-14T05:36:12.446Z,7.77
2017-10-14T05:38:38.763Z,7.13
2017-10-14T05:41:05.061Z,7.13
2017-10-14T05:43:31.359Z,7.03
2017-10-14T05:45:57.603Z,8.27
2017-10-14T05:48:23.904Z,7.77
2017-10-14T05:50:50.225Z,7.07
2017-10-14T05:53:16.472Z,7.47
2017-10-14T05:55:42.826Z,6.43
2017-10-14T05:58:09.119Z,7.60
2017-10-14T06:00:35.403Z,6.37
2017-10-14T06:03:01.739Z,6.77
2017-10-14T06:05:28.826Z,7.10
2017-10-14T06:07:55.113Z,6.60
2017-10-14T06:10:21.553Z,6.63
2017-10-14T06:12:47.812Z,6.00
2017-10-14T06:15:14.108Z,6.63
2017-10-14T06:17:40.413Z,6.70
2017-10-14T06:20:06.657Z,6.70
2017-10-14T06:22:32.972Z,6.77
2017-10-14T06:24:59.409Z,6.00
2017-10-14T06:27:25.718Z,6.77
2017-10-14T06:29:52.075Z,5.90
2017-10-14T06:32:18.338Z,5.87
2017-10-14T06:34:45.334Z,6.23
2017-10-14T06:37:11.593Z,6.50
2017-10-14T06:39:44.797Z,7.33
2017-10-14T06:42:11.904Z,6.17
2017-10-14T06:44:38.213Z,7.20
2017-10-14T06:47:04.499Z,5.77
2017-10-14T06:49:30.803Z,5.57
2017-10-14T06:51:57.135Z,6.13
2017-10-14T06:54:23.451Z,5.37
2017-10-14T06:56:49.727Z,6.23
2017-10-14T06:59:16.039Z,5.63
2017-10-14T07:01:42.321Z,5.43
2017-10-14T07:04:08.637Z,5.50
2017-10-14T07:06:35.762Z,5.27
2017-10-14T07:09:02.042Z,6.33
2017-10-14T07:11:28.332Z,6.50
2017-10-14T07:13:54.898Z,5.23
2017-10-14T07:16:21.313Z,5.43
2017-10-14T07:18:47.630Z,6.10
2017-10-14T07:21:13.984Z,6.67
2017-10-14T07:23:41.021Z,5.10
2017-10-14T07:26:08.172Z,6.23
2017-10-14T07:28:35.291Z,5.23
2017-10-14T07:31:01.592Z,5.13
2017-10-14T07:33:27.879Z,5.40
2017-10-14T07:35:54.936Z,6.07
2017-10-14T07:38:22.017Z,5.00
2017-10-14T07:40:48.327Z,5.03
2017-10-14T07:43:14.617Z,5.23
2017-10-14T07:45:40.889Z,5.63
2017-10-14T07:48:07.233Z,5.37
2017-10-14T07:50:33.605Z,6.03
2017-10-14T07:52:59.889Z,5.73
2017-10-14T07:55:26.219Z,5.87
2017-10-14T07:57:52.510Z,6.60
2017-10-14T08:00:18.815Z,7.27
2017-10-14T08:02:45.843Z,6.83
2017-10-14T08:05:12.142Z,7.07
2017-10-14T08:07:39.209Z,7.80
2017-10-14T08:10:05.506Z,6.00
2017-10-14T08:12:32.559Z,5.97
2017-10-14T08:15:00.550Z,5.70
2017-10-14T08:17:26.882Z,5.60
2017-10-14T08:19:53.128Z,5.83
2017-10-14T08:22:20.318Z,5.87
2017-10-14T08:24:46.599Z,5.30
2017-10-14T08:27:12.924Z,5.50
2017-10-14T08:29:39.184Z,5.80
2017-10-14T08:32:05.542Z,5.90
2017-10-14T08:34:31.934Z,5.77
2017-10-14T08:36:58.242Z,5.60
2017-10-14T08:39:25.314Z,5.40
2017-10-14T08:41:51.590Z,4.77
2017-10-14T08:44:17.848Z,4.97
2017-10-14T08:46:44.877Z,5.80
2017-10-14T08:49:11.159Z,5.40
2017-10-14T08:51:37.453Z,4.97
2017-10-14T08:54:04.553Z,4.47
2017-10-14T08:56:30.839Z,6.67
2017-10-14T08:58:57.881Z,4.80
2017-10-14T09:01:24.896Z,5.53
2017-10-14T09:03:51.157Z,5.27
2017-10-14T09:06:18.187Z,6.10
2017-10-14T09:08:45.229Z,5.90
2017-10-14T09:11:11.487Z,5.97
2017-10-14T09:13:37.838Z,7.80
2017-10-14T09:16:04.116Z,6.63
2017-10-14T09:18:30.372Z,6.30
2017-10-14T09:20:56.887Z,7.73
2017-10-14T09:23:23.280Z,6.27
2017-10-14T09:25:49.639Z,7.73
2017-10-14T09:28:15.948Z,6.60
2017-10-14T09:30:42.214Z,7.07
2017-10-14T09:33:08.514Z,8.37
2017-10-14T09:35:34.928Z,7.40
2017-10-14T09:38:01.292Z,9.00
2017-10-14T09:40:27.620Z,8.30
2017-10-14T09:42:53.862Z,8.57
2017-10-14T09:45:20.150Z,9.93
2017-10-14T09:47:46.397Z,9.93
2017-10-14T09:50:12.731Z,10.17
2017-10-14T09:52:39.043Z,10.83
2017-10-14T09:55:05.318Z,9.10
2017-10-14T09:57:31.609Z,9.90
2017-10-14T09:59:57.918Z,9.27
2017-10-14T10:02:24.207Z,9.23
2017-10-14T10:04:50.507Z,8.90
2017-10-14T10:07:16.839Z,9.10
2017-10-14T10:09:43.160Z,9.67
2017-10-14T10:12:09.499Z,6.70
2017-10-14T10:14:35.829Z,7.27
2017-10-14T10:17:02.248Z,6.73
2017-10-14T10:19:28.573Z,8.10
2017-10-14T10:21:54.869Z,8.47
2017-10-14T10:24:21.950Z,7.07
2017-10-14T10:26:48.225Z,7.13
2017-10-14T10:29:14.530Z,6.57
2017-10-14T10:31:40.836Z,6.80
2017-10-14T10:34:07.116Z,6.83
2017-10-14T10:36:33.394Z,5.97
2017-10-14T10:38:59.650Z,6.40
2017-10-14T10:41:25.916Z,6.30
2017-10-14T10:43:52.257Z,6.10
2017-10-14T10:46:18.539Z,6.90
2017-10-14T10:48:44.802Z,6.60
2017-10-14T10:51:11.327Z,5.73
2017-10-14T10:53:37.602Z,6.23
2017-10-14T10:56:10.898Z,6.30
2017-10-14T10:58:37.939Z,7.10
2017-10-14T11:01:04.274Z,6.47
2017-10-14T11:03:31.387Z,6.20
2017-10-14T11:05:57.787Z,6.00
2017-10-14T11:08:24.221Z,6.77
2017-10-14T11:10:50.584Z,5.53
2017-10-14T11:13:16.968Z,5.40
2017-10-14T11:15:43.221Z,5.47
2017-10-14T11:18:09.486Z,4.40
2017-10-14T11:20:35.759Z,5.00
2017-10-14T11:23:02.074Z,4.93
2017-10-14T11:25:29.058Z,3.83
2017-10-14T11:27:55.298Z,3.00
2017-10-14T11:30:21.574Z,3.50
2017-10-14T11:32:48.586Z,3.17
2017-10-14T11:35:14.860Z,3.37
2017-10-14T11:37:41.122Z,3.50
2017-10-14T11:40:07.385Z,2.93
2017-10-14T11:42:33.693Z,2.60
2017-10-14T11:44:59.970Z,2.57
2017-10-14T11:47:27.928Z,2.40
2017-10-14T11:49:54.226Z,2.53
2017-10-14T11:52:20.476Z,2.43
2017-10-14T11:54:46.777Z,2.20
2017-10-14T11:57:13.068Z,2.03
2017-10-14T11:59:39.337Z,2.30
2017-10-14T12:02:05.687Z,1.57
2017-10-14T12:04:31.922Z,2.23
2017-10-14T12:06:58.197Z,2.10
2017-10-14T12:09:24.534Z,1.70
2017-10-14T12:11:50.849Z,1.83
2017-10-14T12:14:17.174Z,1.90
2017-10-14T12:16:44.236Z,1.50
2017-10-14T12:19:10.481Z,1.23
2017-10-14T12:21:36.796Z,1.50
2017-10-14T12:24:03.095Z,1.53
2017-10-14T12:26:29.565Z,1.00
2017-10-14T12:28:55.852Z,1.63
2017-10-14T12:31:22.117Z,1.40
2017-10-14T12:33:48.393Z,1.77
2017-10-14T12:36:14.699Z,1.30
2017-10-14T12:38:40.957Z,1.50
2017-10-14T12:41:07.260Z,1.27
2017-10-14T12:43:33.582Z,1.87
2017-10-14T12:45:59.875Z,1.30
2017-10-14T12:48:26.903Z,1.50
2017-10-14T12:50:53.200Z,1.97
2017-10-14T12:53:19.529Z,2.20
2017-10-14T12:55:45.810Z,1.60
2017-10-14T12:58:12.122Z,1.43
2017-10-14T13:00:38.393Z,1.30
2017-10-14T13:03:04.648Z,1.50
2017-10-14T13:05:30.958Z,1.67
2017-10-14T13:07:57.256Z,1.43
2017-10-14T13:10:23.535Z,1.50
2017-10-14T13:12:49.813Z,1.90
2017-10-14T13:15:16.098Z,1.50
2017-10-14T13:17:42.389Z,2.17
2017-10-14T13:20:09.395Z,1.93
2017-10-14T13:22:35.730Z,2.07
2017-10-14T13:25:02.531Z,2.27
2017-10-14T13:27:28.819Z,1.60
2017-10-14T13:29:55.097Z,1.60
2017-10-14T13:32:22.139Z,2.00
2017-10-14T13:34:48.444Z,2.13
2017-10-14T13:37:15.513Z,2.03
2017-10-14T13:39:42.561Z,1.87
2017-10-14T13:42:09.688Z,2.03
2017-10-14T13:44:35.962Z,1.90
2017-10-14T13:47:02.296Z,1.90
2017-10-14T13:49:28.573Z,1.80
2017-10-14T13:51:54.830Z,2.03
2017-10-14T13:54:21.854Z,2.07
2017-10-14T13:56:48.218Z,1.60
2017-10-14T13:59:14.506Z,2.30
2017-10-14T14:01:40.798Z,2.00
2017-10-14T14:04:07.085Z,1.90
2017-10-14T14:06:34.120Z,2.00
2017-10-14T14:09:00.461Z,1.70
2017-10-14T14:11:26.791Z,2.33
2017-10-14T14:13:53.122Z,1.97
2017-10-14T14:16:19.367Z,1.80
2017-10-14T14:18:46.416Z,1.63
2017-10-14T14:21:13.519Z,2.20
2017-10-14T14:23:39.789Z,2.30
2017-10-14T14:26:06.918Z,1.90
2017-10-14T14:28:33.336Z,1.90
2017-10-14T14:30:59.633Z,2.00
2017-10-14T14:33:25.960Z,1.80
2017-10-14T14:35:52.338Z,2.20
2017-10-14T14:38:18.697Z,2.40
2017-10-14T14:40:45.800Z,2.00
2017-10-14T14:43:12.168Z,2.17
2017-10-14T14:45:38.560Z,2.60
2017-10-14T14:48:04.980Z,2.23
2017-10-14T14:50:31.426Z,2.30
2017-10-14T14:53:08.282Z,1.50
2017-10-14T14:55:35.347Z,1.70
2017-10-14T14:58:01.696Z,1.80
2017-10-14T15:00:28.013Z,1.90
2017-10-14T15:02:54.379Z,2.17
2017-10-14T15:05:20.818Z,2.27
2017-10-14T15:07:47.114Z,2.37
2017-10-14T15:10:13.543Z,1.90
2017-10-14T15:12:39.836Z,1.70
2017-10-14T15:15:07.027Z,2.60
2017-10-14T15:17:34.007Z,2.57
2017-10-14T15:20:00.276Z,2.80
2017-10-14T15:22:27.441Z,2.80
2017-10-14T15:24:53.734Z,3.40
2017-10-14T15:27:20.015Z,3.00
2017-10-14T15:29:46.327Z,2.70
2017-10-14T15:32:12.636Z,2.70
2017-10-14T15:34:38.954Z,2.60
2017-10-14T15:37:06.071Z,2.67
2017-10-14T15:39:32.405Z,3.10
2017-10-14T15:41:58.865Z,3.10
2017-10-14T15:44:25.178Z,2.80
2017-10-14T15:46:51.469Z,2.60
2017-10-14T15:49:17.756Z,3.17
2017-10-14T15:51:44.063Z,1.93
2017-10-14T15:54:10.371Z,2.87
2017-10-14T15:56:37.831Z,3.70
2017-10-14T15:59:04.994Z,3.93
2017-10-14T16:01:31.257Z,3.60
2017-10-14T16:03:57.586Z,3.27
2017-10-14T16:06:23.849Z,3.73
2017-10-14T16:08:50.211Z,3.37
2017-10-14T16:11:16.502Z,3.87
2017-10-14T16:13:42.775Z,3.53
2017-10-14T16:16:09.233Z,4.33
2017-10-14T16:18:35.491Z,3.40
2017-10-14T16:21:03.631Z,3.87
2017-10-14T16:23:29.949Z,3.60
2017-10-14T16:25:56.314Z,4.07
2017-10-14T16:28:23.369Z,5.87
2017-10-14T16:30:50.428Z,7.13
2017-10-14T16:33:16.794Z,7.47
2017-10-14T16:35:43.063Z,7.00
2017-10-14T16:38:09.333Z,6.47
2017-10-14T16:40:35.627Z,8.67
2017-10-14T16:43:01.910Z,7.77
2017-10-14T16:45:28.237Z,7.50
2017-10-14T16:47:54.554Z,6.03
2017-10-14T16:50:20.849Z,6.27
2017-10-14T16:52:47.950Z,8.17
2017-10-14T16:55:14.284Z,6.83
2017-10-14T16:57:40.835Z,7.17
2017-10-14T17:00:08.150Z,6.73
2017-10-14T17:02:34.445Z,6.73
2017-10-14T17:05:00.812Z,8.63
2017-10-14T17:07:27.078Z,9.10
2017-10-14T17:09:53.466Z,9.50
2017-10-14T17:12:19.823Z,9.40
2017-10-14T17:14:46.134Z,8.70
2017-10-14T17:17:12.450Z,8.70
2017-10-14T17:19:39.474Z,8.33
2017-10-14T17:22:05.771Z,8.43
2017-10-14T17:24:32.108Z,9.50
2017-10-14T17:26:58.452Z,9.30
2017-10-14T17:29:24.818Z,8.50
2017-10-14T17:31:51.857Z,7.20
2017-10-14T17:34:18.346Z,8.40
2017-10-14T17:36:44.653Z,8.57
2017-10-14T17:39:10.939Z,8.67
2017-10-14T17:41:37.383Z,9.30
2017-10-14T17:44:04.431Z,8.33
2017-10-14T17:46:31.553Z,8.67
2017-10-14T17:48:57.853Z,9.40
2017-10-14T17:51:24.155Z,10.10
2017-10-14T17:53:51.207Z,12.03
2017-10-14T17:56:22.224Z,13.40
2017-10-14T17:58:48.581Z,12.43
2017-10-14T18:01:16.745Z,13.50
2017-10-14T18:03:43.043Z,18.00
2017-10-14T18:06:16.398Z,17.63
2017-10-14T18:08:42.742Z,22.47
2017-10-14T18:11:09.067Z,23.47
2017-10-14T18:13:35.350Z,19.30
2017-10-14T18:16:02.763Z,12.63
2017-10-14T18:18:29.192Z,11.73
2017-10-14T18:20:55.622Z,12.53
2017-10-14T18:23:21.914Z,12.43
2017-10-14T18:25:48.945Z,11.77
2017-10-14T18:28:15.254Z,11.93
2017-10-14T18:30:41.535Z,10.53
2017-10-14T18:33:08.707Z,12.93
2017-10-14T18:35:35.029Z,14.47
2017-10-14T18:38:02.070Z,13.40
2017-10-14T18:40:29.163Z,10.90
2017-10-14T18:42:55.479Z,9.50
2017-10-14T18:45:21.818Z,9.43
2017-10-14T18:47:48.239Z,9.17
2017-10-14T18:50:15.573Z,11.03
2017-10-14T18:52:42.636Z,10.07
2017-10-14T18:55:08.994Z,11.20
2017-10-14T18:57:35.340Z,11.70
2017-10-14T19:00:02.425Z,10.97
2017-10-14T19:02:29.480Z,13.53
2017-10-14T19:04:56.582Z,13.13
2017-10-14T19:07:22.861Z,14.30
2017-10-14T19:09:49.937Z,13.30
2017-10-14T19:12:17.377Z,13.13
2017-10-14T19:14:43.726Z,12.90
2017-10-14T19:17:16.981Z,12.97
2017-10-14T19:19:44.020Z,13.73
2017-10-14T19:22:10.311Z,11.10
2017-10-14T19:24:36.718Z,11.30
2017-10-14T19:27:03.034Z,11.87
2017-10-14T19:29:29.450Z,11.13
2017-10-14T19:31:55.789Z,10.17
2017-10-14T19:34:22.833Z,11.43
2017-10-14T19:36:49.850Z,11.50
2017-10-14T19:39:16.117Z,13.13
2017-10-14T19:41:43.123Z,14.23
2017-10-14T19:44:09.404Z,15.20
2017-10-14T19:46:36.457Z,15.30
2017-10-14T19:49:02.800Z,15.57
2017-10-14T19:51:29.133Z,12.90
2017-10-14T19:53:55.550Z,14.10
2017-10-14T19:56:21.887Z,13.57
2017-10-14T19:58:48.205Z,13.17
2017-10-14T20:01:15.388Z,12.50
2017-10-14T20:03:41.760Z,13.10
2017-10-14T20:06:08.057Z,13.80
2017-10-14T20:08:34.334Z,12.90
2017-10-14T20:11:01.350Z,14.67
2017-10-14T20:13:27.645Z,16.17
2017-10-14T20:15:53.925Z,13.70
2017-10-14T20:18:20.178Z,14.63
2017-10-14T20:20:47.222Z,27.90
2017-10-14T20:23:15.117Z,15.77
2017-10-14T20:25:42.057Z,13.50
2017-10-14T20:28:08.289Z,13.10
2017-10-14T20:30:34.595Z,14.43
2017-10-14T20:33:01.608Z,13.87
2017-10-14T20:35:27.854Z,13.43
2017-10-14T20:37:54.118Z,15.80
2017-10-14T20:40:20.378Z,16.37
2017-10-14T20:42:46.688Z,15.17
2017-10-14T20:45:13.009Z,14.43
2017-10-14T20:47:39.290Z,16.27
2017-10-14T20:50:05.657Z,16.13
2017-10-14T20:52:32.686Z,15.70
2017-10-14T20:54:58.982Z,15.77
2017-10-14T20:57:25.299Z,16.40
2017-10-14T20:59:51.574Z,17.20
2017-10-14T21:02:17.990Z,17.10
2017-10-14T21:04:45.041Z,13.83
2017-10-14T21:07:11.323Z,15.77
2017-10-14T21:09:38.364Z,15.03
2017-10-14T21:12:04.804Z,17.93
2017-10-14T21:14:31.143Z,16.30
2017-10-14T21:16:57.390Z,24.00
2017-10-14T21:19:23.675Z,24.30
2017-10-14T21:21:50.709Z,18.30
2017-10-14T21:24:17.030Z,15.87
2017-10-14T21:26:43.318Z,16.67
2017-10-14T21:29:09.601Z,15.70
2017-10-14T21:31:35.902Z,18.63
2017-10-14T21:34:02.179Z,16.37
2017-10-14T21:36:29.218Z,15.00
2017-10-14T21:38:55.530Z,16.27
2017-10-14T21:41:21.890Z,15.43
2017-10-14T21:43:48.180Z,17.27
2017-10-14T21:46:14.435Z,19.03
2017-10-14T21:48:40.697Z,17.37
2017-10-14T21:51:06.973Z,16.57
2017-10-14T21:53:33.326Z,18.83
2017-10-14T22:16:23.681Z,14.97
2017-10-14T22:21:47.208Z,16.20
2017-10-14T22:24:22.400Z,15.50
2017-10-14T22:26:59.553Z,14.93
2017-10-14T22:29:25.833Z,15.80
2017-10-14T22:31:52.203Z,16.77
2017-10-14T22:34:18.449Z,16.33
2017-10-14T22:36:44.735Z,15.40
2017-10-14T22:39:10.977Z,16.13
2017-10-14T22:41:37.264Z,15.17
2017-10-14T23:04:56.678Z,9.90
2017-10-14T23:07:41.116Z,14.90
2017-10-14T23:10:16.626Z,10.93
2017-10-14T23:12:42.917Z,12.17
2017-10-14T23:15:09.938Z,12.07
2017-10-14T23:17:36.212Z,11.87
2017-10-14T23:20:02.505Z,13.97
2017-10-14T23:22:28.792Z,14.20
2017-10-14T23:24:55.139Z,13.33
2017-10-14T23:27:21.424Z,12.67
2017-10-14T23:29:47.706Z,15.00
2017-10-14T23:32:14.001Z,13.07
2017-10-14T23:34:41.259Z,13.63
2017-10-14T23:37:07.524Z,13.10
2017-10-14T23:39:33.781Z,12.00
2017-10-14T23:42:00.818Z,14.47
2017-10-14T23:44:27.117Z,12.93
2017-10-14T23:46:53.400Z,13.43
2017-10-14T23:49:20.441Z,13.90
2017-10-14T23:51:47.464Z,12.20
2017-10-14T23:54:13.746Z,13.60
2017-10-14T23:56:40.082Z,13.07
2017-10-14T23:59:06.410Z,14.67
